sensor_id;sensor_type;location;lat;lon;timestamp;P1;durP1;ratioP1;P2;durP2;ratioP2
50649;SDS011;36621;60.058;30.346;2023-11-22T00:00:18;10.15;;;5.50;;
50649;SDS011;36621;60.058;30.346;2023-11-22T00:07:52;10.05;;;5.30;;
50649;SDS011;36621;60.058;30.346;2023-11-22T00:15:25;10.68;;;4.85;;
50649;SDS011;36621;60.058;30.346;2023-11-22T00:22:58;9.68;;;4.97;;
50649;SDS011;36621;60.058;30.346;2023-11-22T00:30:30;8.60;;;5.18;;
50649;SDS011;36621;60.058;30.346;2023-11-22T00:38:03;7.28;;;3.67;;
50649;SDS011;36621;60.058;30.346;2023-11-22T00:45:35;7.65;;;4.50;;
50649;SDS011;36621;60.058;30.346;2023-11-22T00:53:08;7.93;;;4.53;;
50649;SDS011;36621;60.058;30.346;2023-11-22T01:00:40;7.55;;;4.22;;
50649;SDS011;36621;60.058;30.346;2023-11-22T01:08:13;6.30;;;4.32;;
50649;SDS011;36621;60.058;30.346;2023-11-22T01:15:45;6.20;;;3.65;;
50649;SDS011;36621;60.058;30.346;2023-11-22T01:23:18;8.45;;;3.90;;
50649;SDS011;36621;60.058;30.346;2023-11-22T01:30:51;7.65;;;3.92;;
50649;SDS011;36621;60.058;30.346;2023-11-22T01:38:24;12.00;;;6.32;;
50649;SDS011;36621;60.058;30.346;2023-11-22T01:45:56;11.77;;;5.82;;
50649;SDS011;36621;60.058;30.346;2023-11-22T01:53:29;8.77;;;4.63;;
50649;SDS011;36621;60.058;30.346;2023-11-22T02:01:03;6.03;;;3.40;;
50649;SDS011;36621;60.058;30.346;2023-11-22T02:08:37;3.20;;;2.33;;
50649;SDS011;36621;60.058;30.346;2023-11-22T02:16:10;3.65;;;1.85;;
50649;SDS011;36621;60.058;30.346;2023-11-22T02:23:43;4.13;;;2.13;;
50649;SDS011;36621;60.058;30.346;2023-11-22T02:31:16;2.83;;;2.03;;
50649;SDS011;36621;60.058;30.346;2023-11-22T02:38:50;3.40;;;2.13;;
50649;SDS011;36621;60.058;30.346;2023-11-22T02:46:22;2.63;;;1.95;;
50649;SDS011;36621;60.058;30.346;2023-11-22T02:53:55;2.65;;;2.00;;
50649;SDS011;36621;60.058;30.346;2023-11-22T03:01:27;3.15;;;2.13;;
50649;SDS011;36621;60.058;30.346;2023-11-22T03:09:01;6.38;;;3.13;;
50649;SDS011;36621;60.058;30.346;2023-11-22T03:16:33;6.18;;;3.90;;
50649;SDS011;36621;60.058;30.346;2023-11-22T03:24:06;4.57;;;2.58;;
50649;SDS011;36621;60.058;30.346;2023-11-22T03:31:39;3.40;;;2.05;;
50649;SDS011;36621;60.058;30.346;2023-11-22T03:39:12;4.40;;;1.90;;
50649;SDS011;36621;60.058;30.346;2023-11-22T03:46:46;1.92;;;1.50;;
50649;SDS011;36621;60.058;30.346;2023-11-22T03:54:18;2.88;;;2.00;;
50649;SDS011;36621;60.058;30.346;2023-11-22T04:01:51;2.33;;;1.73;;
50649;SDS011;36621;60.058;30.346;2023-11-22T04:09:23;3.63;;;1.98;;
50649;SDS011;36621;60.058;30.346;2023-11-22T04:16:56;1.77;;;1.52;;
50649;SDS011;36621;60.058;30.346;2023-11-22T04:24:28;1.60;;;1.48;;
50649;SDS011;36621;60.058;30.346;2023-11-22T04:32:01;2.85;;;2.35;;
50649;SDS011;36621;60.058;30.346;2023-11-22T04:39:34;4.00;;;2.50;;
50649;SDS011;36621;60.058;30.346;2023-11-22T04:47:06;7.72;;;3.30;;
50649;SDS011;36621;60.058;30.346;2023-11-22T04:54:40;6.53;;;3.60;;
50649;SDS011;36621;60.058;30.346;2023-11-22T05:02:12;5.28;;;2.53;;
50649;SDS011;36621;60.058;30.346;2023-11-22T05:09:45;5.68;;;3.22;;
50649;SDS011;36621;60.058;30.346;2023-11-22T05:17:18;7.85;;;2.50;;
50649;SDS011;36621;60.058;30.346;2023-11-22T05:24:50;3.65;;;2.22;;
50649;SDS011;36621;60.058;30.346;2023-11-22T05:32:23;4.80;;;2.53;;
50649;SDS011;36621;60.058;30.346;2023-11-22T05:39:55;6.85;;;3.45;;
50649;SDS011;36621;60.058;30.346;2023-11-22T05:47:28;3.85;;;2.70;;
50649;SDS011;36621;60.058;30.346;2023-11-22T05:55:00;5.45;;;1.90;;
50649;SDS011;36621;60.058;30.346;2023-11-22T06:02:35;1.80;;;1.55;;
50649;SDS011;36621;60.058;30.346;2023-11-22T06:10:10;2.70;;;1.50;;
50649;SDS011;36621;60.058;30.346;2023-11-22T06:17:44;2.00;;;1.30;;
50649;SDS011;36621;60.058;30.346;2023-11-22T06:25:17;2.10;;;1.73;;
50649;SDS011;36621;60.058;30.346;2023-11-22T06:32:50;3.67;;;2.45;;
50649;SDS011;36621;60.058;30.346;2023-11-22T06:40:23;8.52;;;4.90;;
50649;SDS011;36621;60.058;30.346;2023-11-22T06:47:55;5.75;;;2.50;;
50649;SDS011;36621;60.058;30.346;2023-11-22T06:55:28;4.57;;;2.35;;
50649;SDS011;36621;60.058;30.346;2023-11-22T07:03:02;3.97;;;2.33;;
50649;SDS011;36621;60.058;30.346;2023-11-22T13:44:13;6.22;;;3.45;;
50649;SDS011;36621;60.058;30.346;2023-11-22T13:51:46;4.57;;;2.80;;
50649;SDS011;36621;60.058;30.346;2023-11-22T13:59:20;4.97;;;2.72;;
50649;SDS011;36621;60.058;30.346;2023-11-22T14:06:52;5.78;;;3.50;;
50649;SDS011;36621;60.058;30.346;2023-11-22T14:14:25;8.38;;;3.53;;
50649;SDS011;36621;60.058;30.346;2023-11-22T14:21:58;7.63;;;4.32;;
50649;SDS011;36621;60.058;30.346;2023-11-22T14:29:31;10.00;;;5.05;;
50649;SDS011;36621;60.058;30.346;2023-11-22T14:37:04;8.02;;;3.90;;
50649;SDS011;36621;60.058;30.346;2023-11-22T14:44:37;4.88;;;3.38;;
50649;SDS011;36621;60.058;30.346;2023-11-22T14:52:10;7.93;;;3.88;;
50649;SDS011;36621;60.058;30.346;2023-11-22T14:59:43;5.93;;;3.95;;
50649;SDS011;36621;60.058;30.346;2023-11-22T15:07:15;7.80;;;3.55;;
50649;SDS011;36621;60.058;30.346;2023-11-22T15:14:49;5.03;;;3.33;;
50649;SDS011;36621;60.058;30.346;2023-11-22T15:22:21;7.22;;;3.55;;
50649;SDS011;36621;60.058;30.346;2023-11-22T15:29:54;6.45;;;4.10;;
50649;SDS011;36621;60.058;30.346;2023-11-22T15:37:26;7.60;;;4.35;;
50649;SDS011;36621;60.058;30.346;2023-11-22T15:45:01;6.60;;;4.30;;
50649;SDS011;36621;60.058;30.346;2023-11-22T15:52:35;6.93;;;4.60;;
50649;SDS011;36621;60.058;30.346;2023-11-22T16:00:09;7.47;;;4.35;;
50649;SDS011;36621;60.058;30.346;2023-11-22T16:07:45;11.07;;;4.82;;
50649;SDS011;36621;60.058;30.346;2023-11-22T16:15:18;11.90;;;5.25;;
50649;SDS011;36621;60.058;30.346;2023-11-22T16:22:51;6.82;;;4.63;;
50649;SDS011;36621;60.058;30.346;2023-11-22T16:30:24;9.63;;;5.20;;
50649;SDS011;36621;60.058;30.346;2023-11-22T16:37:56;9.93;;;5.47;;
50649;SDS011;36621;60.058;30.346;2023-11-22T16:45:29;10.02;;;6.72;;
50649;SDS011;36621;60.058;30.346;2023-11-22T16:53:08;11.63;;;5.93;;
50649;SDS011;36621;60.058;30.346;2023-11-22T17:00:42;9.60;;;5.82;;
50649;SDS011;36621;60.058;30.346;2023-11-22T17:08:17;7.47;;;5.35;;
50649;SDS011;36621;60.058;30.346;2023-11-22T17:15:50;7.97;;;5.47;;
50649;SDS011;36621;60.058;30.346;2023-11-22T17:23:23;9.55;;;5.43;;
50649;SDS011;36621;60.058;30.346;2023-11-22T17:30:56;7.43;;;4.72;;
50649;SDS011;36621;60.058;30.346;2023-11-22T17:38:29;7.65;;;4.63;;
50649;SDS011;36621;60.058;30.346;2023-11-22T17:46:03;10.80;;;4.35;;
50649;SDS011;36621;60.058;30.346;2023-11-22T17:53:38;8.10;;;4.15;;
50649;SDS011;36621;60.058;30.346;2023-11-22T18:01:11;10.40;;;6.05;;
50649;SDS011;36621;60.058;30.346;2023-11-22T18:08:43;6.68;;;4.18;;
50649;SDS011;36621;60.058;30.346;2023-11-22T18:16:16;5.20;;;3.38;;
50649;SDS011;36621;60.058;30.346;2023-11-22T18:23:52;8.23;;;3.75;;
50649;SDS011;36621;60.058;30.346;2023-11-22T18:31:27;4.40;;;3.60;;
50649;SDS011;36621;60.058;30.346;2023-11-22T18:39:02;5.88;;;3.30;;
50649;SDS011;36621;60.058;30.346;2023-11-22T18:46:36;4.57;;;3.30;;
50649;SDS011;36621;60.058;30.346;2023-11-22T18:54:09;5.32;;;3.88;;
50649;SDS011;36621;60.058;30.346;2023-11-22T19:01:42;5.72;;;3.45;;
50649;SDS011;36621;60.058;30.346;2023-11-22T19:09:18;5.93;;;3.88;;
50649;SDS011;36621;60.058;30.346;2023-11-22T19:16:51;6.78;;;4.25;;
50649;SDS011;36621;60.058;30.346;2023-11-22T19:24:24;8.75;;;4.50;;
50649;SDS011;36621;60.058;30.346;2023-11-22T19:31:58;8.10;;;4.43;;
50649;SDS011;36621;60.058;30.346;2023-11-22T19:39:32;7.72;;;4.40;;
50649;SDS011;36621;60.058;30.346;2023-11-22T19:47:05;7.18;;;4.68;;
50649;SDS011;36621;60.058;30.346;2023-11-22T19:54:38;9.20;;;4.88;;
50649;SDS011;36621;60.058;30.346;2023-11-22T20:02:11;6.82;;;4.90;;
50649;SDS011;36621;60.058;30.346;2023-11-22T20:09:48;8.23;;;4.67;;
50649;SDS011;36621;60.058;30.346;2023-11-22T20:17:21;11.77;;;4.72;;
50649;SDS011;36621;60.058;30.346;2023-11-22T20:24:53;23.15;;;13.90;;
50649;SDS011;36621;60.058;30.346;2023-11-22T20:32:26;7.90;;;4.40;;
50649;SDS011;36621;60.058;30.346;2023-11-22T20:39:58;7.10;;;4.20;;
50649;SDS011;36621;60.058;30.346;2023-11-22T20:47:31;7.40;;;4.53;;
50649;SDS011;36621;60.058;30.346;2023-11-22T20:55:04;8.48;;;3.88;;
50649;SDS011;36621;60.058;30.346;2023-11-22T21:02:40;6.07;;;3.70;;
50649;SDS011;36621;60.058;30.346;2023-11-22T21:10:13;5.47;;;3.53;;
50649;SDS011;36621;60.058;30.346;2023-11-22T21:17:47;5.85;;;4.10;;
50649;SDS011;36621;60.058;30.346;2023-11-22T21:25:21;6.85;;;3.63;;
50649;SDS011;36621;60.058;30.346;2023-11-22T21:32:55;4.85;;;2.90;;
50649;SDS011;36621;60.058;30.346;2023-11-22T21:40:28;6.80;;;3.03;;
50649;SDS011;36621;60.058;30.346;2023-11-22T21:48:01;5.65;;;3.03;;
50649;SDS011;36621;60.058;30.346;2023-11-22T21:55:33;3.75;;;2.53;;
50649;SDS011;36621;60.058;30.346;2023-11-22T22:03:06;6.60;;;2.10;;
50649;SDS011;36621;60.058;30.346;2023-11-22T22:10:38;4.78;;;2.17;;
50649;SDS011;36621;60.058;30.346;2023-11-22T22:18:11;2.88;;;2.10;;
50649;SDS011;36621;60.058;30.346;2023-11-22T22:25:44;3.30;;;2.30;;
50649;SDS011;36621;60.058;30.346;2023-11-22T22:33:16;5.53;;;2.80;;
50649;SDS011;36621;60.058;30.346;2023-11-22T22:40:49;5.22;;;2.05;;
50649;SDS011;36621;60.058;30.346;2023-11-22T22:48:22;2.42;;;1.77;;
50649;SDS011;36621;60.058;30.346;2023-11-22T22:55:54;3.72;;;2.45;;
50649;SDS011;36621;60.058;30.346;2023-11-22T23:03:27;2.78;;;1.80;;
50649;SDS011;36621;60.058;30.346;2023-11-22T23:11:00;3.17;;;1.90;;
50649;SDS011;36621;60.058;30.346;2023-11-22T23:18:33;4.18;;;1.75;;
50649;SDS011;36621;60.058;30.346;2023-11-22T23:26:05;6.55;;;1.92;;
50649;SDS011;36621;60.058;30.346;2023-11-22T23:33:38;3.53;;;2.10;;
50649;SDS011;36621;60.058;30.346;2023-11-22T23:41:10;4.35;;;2.13;;
50649;SDS011;36621;60.058;30.346;2023-11-22T23:48:44;3.45;;;1.80;;
50649;SDS011;36621;60.058;30.346;2023-11-22T23:56:16;4.28;;;1.90;;
